Airfield :







YOU CAN JOIN US ON...

 
LOGIN :

Register | Disclaimer

   EN    FR    IT 

 









Legend :    VFR   Marginal VFR   IFR   Intensive IFR   Very Intensive IFR
Visi :
Ceiling :
>= 8 km
>= 3000ft
5 to 8 km
1000 to 3000 ft
1500m to 5 km
500 to 1000 ft
800 to 1500m
200 to 500 ft
< 800m
< 200 ft
Symbols :   Thunderstorms  Fog  Heavy snow  Heavy precipitations  Wind > 20 kt







- Airport Elevation : 39 ft
- IATA code : YNA


CYNA - Natashquan

CURRENT METAR :
  • 251300Z AUTO 08015G21KT 9SM OVC110 M01/M09 A3004 RMK SLP176

EXPIRED METARs :
  • 251200Z AUTO 06015KT 9SM OVC110 M01/M09 A3005 RMK SLP178
  • 251100Z AUTO 06013G18KT 9SM OVC110 M02/M09 A3005 RMK SLP177

TAF TAF CYNA
Valid from the 25 at 08:00 until the 25 at 20:00 UTC


250738Z 2508/2520 07012G22KT P6SM OVC120
BECMG 2511/2513 07018G28KT
FM251600 07018G28KT 2SM -SN BKN030 OVC060 RMK FCST BASED ON AUTO OBS. NXT FCST BY 251400Z
CZUL FIR / North America



MET'MAP, your aeronautical weather chart ! - Copyright ORBIFLY December 2007 - Disclaimer

ORBIFLY MET'MAP TEAM :

Programming & Development : Alexandra Zaïnal
Concept & Development : Baudouin d'Aumeries
Co-Development & Prog : Marc-Olivier Méhu
Technical & hardware support : Manuel Goepfert

Contact : metmap@orbifly.com




SOURCES & CREDITS :

   NOAA